sensor_id;sensor_type;location;lat;lon;timestamp;P1;durP1;ratioP1;P2;durP2;ratioP2
36443;SDS011;24692;45.642;13.806;2023-07-24T00:01:18;15.48;;;8.55;;
36443;SDS011;24692;45.642;13.806;2023-07-24T00:03:44;13.20;;;8.27;;
36443;SDS011;24692;45.642;13.806;2023-07-24T00:06:10;14.32;;;8.40;;
36443;SDS011;24692;45.642;13.806;2023-07-24T00:08:36;12.65;;;7.97;;
36443;SDS011;24692;45.642;13.806;2023-07-24T00:11:02;14.52;;;8.80;;
36443;SDS011;24692;45.642;13.806;2023-07-24T00:13:31;13.50;;;8.25;;
36443;SDS011;24692;45.642;13.806;2023-07-24T00:15:57;11.38;;;7.85;;
36443;SDS011;24692;45.642;13.806;2023-07-24T00:18:22;16.52;;;7.97;;
36443;SDS011;24692;45.642;13.806;2023-07-24T00:20:48;13.65;;;8.10;;
36443;SDS011;24692;45.642;13.806;2023-07-24T00:23:14;13.40;;;8.52;;
36443;SDS011;24692;45.642;13.806;2023-07-24T00:25:39;15.25;;;8.38;;
36443;SDS011;24692;45.642;13.806;2023-07-24T00:28:05;14.43;;;8.48;;
36443;SDS011;24692;45.642;13.806;2023-07-24T00:30:31;13.55;;;8.38;;
36443;SDS011;24692;45.642;13.806;2023-07-24T00:32:56;13.30;;;8.80;;
36443;SDS011;24692;45.642;13.806;2023-07-24T00:35:22;14.77;;;8.75;;
36443;SDS011;24692;45.642;13.806;2023-07-24T00:37:48;13.75;;;8.30;;
36443;SDS011;24692;45.642;13.806;2023-07-24T00:40:13;13.32;;;8.60;;
36443;SDS011;24692;45.642;13.806;2023-07-24T00:42:39;16.13;;;8.40;;
36443;SDS011;24692;45.642;13.806;2023-07-24T00:45:05;14.02;;;8.65;;
36443;SDS011;24692;45.642;13.806;2023-07-24T00:47:31;11.63;;;8.45;;
36443;SDS011;24692;45.642;13.806;2023-07-24T00:49:57;12.82;;;8.48;;
36443;SDS011;24692;45.642;13.806;2023-07-24T00:52:23;13.48;;;8.43;;
36443;SDS011;24692;45.642;13.806;2023-07-24T00:54:50;14.75;;;9.15;;
36443;SDS011;24692;45.642;13.806;2023-07-24T00:57:16;14.65;;;8.80;;
36443;SDS011;24692;45.642;13.806;2023-07-24T00:59:42;13.02;;;8.40;;
36443;SDS011;24692;45.642;13.806;2023-07-24T01:02:08;13.65;;;8.40;;
36443;SDS011;24692;45.642;13.806;2023-07-24T01:04:34;13.45;;;8.75;;
36443;SDS011;24692;45.642;13.806;2023-07-24T01:07:00;14.52;;;8.85;;
36443;SDS011;24692;45.642;13.806;2023-07-24T01:09:25;15.13;;;8.88;;
36443;SDS011;24692;45.642;13.806;2023-07-24T01:11:59;12.45;;;8.77;;
36443;SDS011;24692;45.642;13.806;2023-07-24T01:14:33;13.77;;;9.05;;
36443;SDS011;24692;45.642;13.806;2023-07-24T01:17:07;13.95;;;8.80;;
36443;SDS011;24692;45.642;13.806;2023-07-24T01:19:36;15.88;;;8.77;;
36443;SDS011;24692;45.642;13.806;2023-07-24T01:22:20;13.90;;;8.93;;
36443;SDS011;24692;45.642;13.806;2023-07-24T01:27:31;14.00;;;8.55;;
36443;SDS011;24692;45.642;13.806;2023-07-24T01:29:57;15.38;;;8.93;;
36443;SDS011;24692;45.642;13.806;2023-07-24T01:32:22;14.80;;;9.13;;
36443;SDS011;24692;45.642;13.806;2023-07-24T01:34:49;15.82;;;9.43;;
36443;SDS011;24692;45.642;13.806;2023-07-24T01:37:15;16.92;;;9.52;;
36443;SDS011;24692;45.642;13.806;2023-07-24T01:39:42;13.60;;;8.55;;
36443;SDS011;24692;45.642;13.806;2023-07-24T01:42:09;14.55;;;9.13;;
36443;SDS011;24692;45.642;13.806;2023-07-24T01:44:35;14.73;;;9.25;;
36443;SDS011;24692;45.642;13.806;2023-07-24T01:47:01;15.63;;;8.75;;
36443;SDS011;24692;45.642;13.806;2023-07-24T01:49:27;17.00;;;9.95;;
36443;SDS011;24692;45.642;13.806;2023-07-24T01:51:52;15.18;;;9.70;;
36443;SDS011;24692;45.642;13.806;2023-07-24T01:54:18;15.75;;;8.65;;
36443;SDS011;24692;45.642;13.806;2023-07-24T01:56:44;15.65;;;8.98;;
36443;SDS011;24692;45.642;13.806;2023-07-24T01:59:09;14.88;;;8.88;;
36443;SDS011;24692;45.642;13.806;2023-07-24T02:01:35;16.52;;;8.95;;
36443;SDS011;24692;45.642;13.806;2023-07-24T02:04:01;13.38;;;9.20;;
36443;SDS011;24692;45.642;13.806;2023-07-24T02:06:27;16.02;;;9.77;;
36443;SDS011;24692;45.642;13.806;2023-07-24T02:08:52;15.32;;;9.10;;
36443;SDS011;24692;45.642;13.806;2023-07-24T02:11:18;15.93;;;9.40;;
36443;SDS011;24692;45.642;13.806;2023-07-24T02:13:44;13.82;;;9.35;;
36443;SDS011;24692;45.642;13.806;2023-07-24T02:16:11;14.27;;;9.33;;
36443;SDS011;24692;45.642;13.806;2023-07-24T02:18:38;14.45;;;9.27;;
36443;SDS011;24692;45.642;13.806;2023-07-24T02:21:07;15.10;;;9.65;;
36443;SDS011;24692;45.642;13.806;2023-07-24T02:23:33;14.93;;;9.88;;
36443;SDS011;24692;45.642;13.806;2023-07-24T02:26:00;15.10;;;9.43;;
36443;SDS011;24692;45.642;13.806;2023-07-24T02:28:26;16.23;;;9.77;;
36443;SDS011;24692;45.642;13.806;2023-07-24T02:30:51;15.30;;;9.27;;
36443;SDS011;24692;45.642;13.806;2023-07-24T02:33:21;15.55;;;9.68;;
36443;SDS011;24692;45.642;13.806;2023-07-24T02:35:47;15.88;;;9.60;;
36443;SDS011;24692;45.642;13.806;2023-07-24T02:38:16;14.65;;;9.35;;
36443;SDS011;24692;45.642;13.806;2023-07-24T02:40:41;15.25;;;9.63;;
36443;SDS011;24692;45.642;13.806;2023-07-24T02:43:08;16.10;;;9.57;;
36443;SDS011;24692;45.642;13.806;2023-07-24T02:45:34;15.98;;;8.82;;
36443;SDS011;24692;45.642;13.806;2023-07-24T02:48:00;17.13;;;9.40;;
36443;SDS011;24692;45.642;13.806;2023-07-24T02:50:27;13.30;;;9.35;;
36443;SDS011;24692;45.642;13.806;2023-07-24T02:52:52;14.75;;;9.50;;
36443;SDS011;24692;45.642;13.806;2023-07-24T02:55:18;13.35;;;9.32;;
36443;SDS011;24692;45.642;13.806;2023-07-24T02:57:44;16.58;;;9.73;;
36443;SDS011;24692;45.642;13.806;2023-07-24T03:00:09;14.65;;;9.70;;
36443;SDS011;24692;45.642;13.806;2023-07-24T03:02:35;17.63;;;9.75;;
36443;SDS011;24692;45.642;13.806;2023-07-24T03:05:01;14.35;;;9.35;;
36443;SDS011;24692;45.642;13.806;2023-07-24T03:07:28;17.88;;;9.70;;
36443;SDS011;24692;45.642;13.806;2023-07-24T03:09:53;17.65;;;10.02;;
36443;SDS011;24692;45.642;13.806;2023-07-24T03:12:19;15.45;;;9.35;;
36443;SDS011;24692;45.642;13.806;2023-07-24T03:14:44;13.65;;;9.02;;
36443;SDS011;24692;45.642;13.806;2023-07-24T03:17:10;18.25;;;9.90;;
36443;SDS011;24692;45.642;13.806;2023-07-24T03:19:36;15.13;;;9.65;;
36443;SDS011;24692;45.642;13.806;2023-07-24T03:22:02;14.45;;;9.60;;
36443;SDS011;24692;45.642;13.806;2023-07-24T03:24:27;17.08;;;9.77;;
36443;SDS011;24692;45.642;13.806;2023-07-24T03:26:53;17.45;;;10.05;;
36443;SDS011;24692;45.642;13.806;2023-07-24T03:29:19;18.70;;;9.90;;
36443;SDS011;24692;45.642;13.806;2023-07-24T03:31:44;16.48;;;10.45;;
36443;SDS011;24692;45.642;13.806;2023-07-24T03:34:10;16.70;;;9.63;;
36443;SDS011;24692;45.642;13.806;2023-07-24T03:36:35;17.13;;;9.82;;
36443;SDS011;24692;45.642;13.806;2023-07-24T03:39:01;17.13;;;9.73;;
36443;SDS011;24692;45.642;13.806;2023-07-24T03:41:27;15.48;;;9.02;;
36443;SDS011;24692;45.642;13.806;2023-07-24T03:43:53;15.23;;;9.32;;
36443;SDS011;24692;45.642;13.806;2023-07-24T03:46:19;14.18;;;9.63;;
36443;SDS011;24692;45.642;13.806;2023-07-24T03:48:44;14.30;;;9.50;;
36443;SDS011;24692;45.642;13.806;2023-07-24T03:51:10;19.20;;;10.05;;
36443;SDS011;24692;45.642;13.806;2023-07-24T03:53:35;13.55;;;9.45;;
36443;SDS011;24692;45.642;13.806;2023-07-24T03:56:01;14.50;;;9.40;;
36443;SDS011;24692;45.642;13.806;2023-07-24T03:58:27;17.40;;;9.77;;
36443;SDS011;24692;45.642;13.806;2023-07-24T04:00:52;14.90;;;9.98;;
36443;SDS011;24692;45.642;13.806;2023-07-24T04:03:18;15.90;;;9.98;;
36443;SDS011;24692;45.642;13.806;2023-07-24T04:05:44;18.45;;;9.45;;
36443;SDS011;24692;45.642;13.806;2023-07-24T04:08:09;15.05;;;9.45;;
36443;SDS011;24692;45.642;13.806;2023-07-24T04:10:36;17.17;;;9.55;;
36443;SDS011;24692;45.642;13.806;2023-07-24T04:13:02;19.05;;;10.50;;
36443;SDS011;24692;45.642;13.806;2023-07-24T04:15:27;17.20;;;9.50;;
36443;SDS011;24692;45.642;13.806;2023-07-24T04:17:53;19.00;;;9.80;;
36443;SDS011;24692;45.642;13.806;2023-07-24T04:20:18;16.70;;;9.50;;
36443;SDS011;24692;45.642;13.806;2023-07-24T04:22:44;15.45;;;9.27;;
36443;SDS011;24692;45.642;13.806;2023-07-24T04:25:10;18.42;;;9.60;;
36443;SDS011;24692;45.642;13.806;2023-07-24T04:27:35;16.23;;;9.65;;
36443;SDS011;24692;45.642;13.806;2023-07-24T04:30:01;15.95;;;10.48;;
36443;SDS011;24692;45.642;13.806;2023-07-24T04:32:27;17.88;;;9.63;;
36443;SDS011;24692;45.642;13.806;2023-07-24T04:34:53;14.32;;;9.93;;
36443;SDS011;24692;45.642;13.806;2023-07-24T04:37:18;16.23;;;9.65;;
36443;SDS011;24692;45.642;13.806;2023-07-24T04:39:44;14.65;;;9.80;;
36443;SDS011;24692;45.642;13.806;2023-07-24T04:42:10;15.18;;;9.15;;
36443;SDS011;24692;45.642;13.806;2023-07-24T04:44:35;14.07;;;9.30;;
36443;SDS011;24692;45.642;13.806;2023-07-24T04:47:01;15.05;;;9.30;;
36443;SDS011;24692;45.642;13.806;2023-07-24T04:49:30;15.73;;;10.07;;
36443;SDS011;24692;45.642;13.806;2023-07-24T04:51:57;16.92;;;9.80;;
36443;SDS011;24692;45.642;13.806;2023-07-24T04:54:24;14.88;;;9.95;;
36443;SDS011;24692;45.642;13.806;2023-07-24T04:56:50;19.27;;;10.30;;
36443;SDS011;24692;45.642;13.806;2023-07-24T04:59:15;17.85;;;9.50;;
36443;SDS011;24692;45.642;13.806;2023-07-24T05:01:41;16.80;;;9.80;;
36443;SDS011;24692;45.642;13.806;2023-07-24T05:04:08;16.02;;;10.23;;
36443;SDS011;24692;45.642;13.806;2023-07-24T05:06:33;16.73;;;10.07;;
36443;SDS011;24692;45.642;13.806;2023-07-24T05:09:00;15.50;;;9.38;;
36443;SDS011;24692;45.642;13.806;2023-07-24T05:11:27;15.63;;;9.80;;
36443;SDS011;24692;45.642;13.806;2023-07-24T05:13:52;15.20;;;9.68;;
36443;SDS011;24692;45.642;13.806;2023-07-24T05:16:18;14.98;;;10.50;;
36443;SDS011;24692;45.642;13.806;2023-07-24T05:18:43;15.70;;;9.20;;
36443;SDS011;24692;45.642;13.806;2023-07-24T05:21:09;16.55;;;9.90;;
36443;SDS011;24692;45.642;13.806;2023-07-24T05:23:35;17.58;;;9.88;;
36443;SDS011;24692;45.642;13.806;2023-07-24T05:26:01;16.38;;;9.70;;
36443;SDS011;24692;45.642;13.806;2023-07-24T05:28:28;15.32;;;9.93;;
36443;SDS011;24692;45.642;13.806;2023-07-24T05:30:59;16.60;;;10.48;;
36443;SDS011;24692;45.642;13.806;2023-07-24T05:33:29;15.13;;;9.68;;
36443;SDS011;24692;45.642;13.806;2023-07-24T05:35:58;16.35;;;9.68;;
36443;SDS011;24692;45.642;13.806;2023-07-24T05:38:25;14.35;;;9.95;;
36443;SDS011;24692;45.642;13.806;2023-07-24T05:40:57;17.58;;;9.70;;
36443;SDS011;24692;45.642;13.806;2023-07-24T05:43:27;15.82;;;9.90;;
36443;SDS011;24692;45.642;13.806;2023-07-24T05:45:55;15.75;;;9.82;;
36443;SDS011;24692;45.642;13.806;2023-07-24T05:48:21;17.85;;;10.27;;
36443;SDS011;24692;45.642;13.806;2023-07-24T05:50:47;18.13;;;10.35;;
36443;SDS011;24692;45.642;13.806;2023-07-24T05:53:13;22.05;;;10.20;;
36443;SDS011;24692;45.642;13.806;2023-07-24T05:55:39;17.45;;;10.18;;
36443;SDS011;24692;45.642;13.806;2023-07-24T05:58:05;17.65;;;10.27;;
36443;SDS011;24692;45.642;13.806;2023-07-24T06:00:31;13.63;;;9.85;;
36443;SDS011;24692;45.642;13.806;2023-07-24T06:02:57;17.38;;;10.75;;
36443;SDS011;24692;45.642;13.806;2023-07-24T06:05:22;13.43;;;9.50;;
36443;SDS011;24692;45.642;13.806;2023-07-24T06:07:48;16.63;;;10.40;;
36443;SDS011;24692;45.642;13.806;2023-07-24T06:10:14;15.95;;;10.40;;
36443;SDS011;24692;45.642;13.806;2023-07-24T06:12:39;16.38;;;10.68;;
36443;SDS011;24692;45.642;13.806;2023-07-24T06:15:05;20.65;;;10.95;;
36443;SDS011;24692;45.642;13.806;2023-07-24T06:17:32;20.40;;;12.00;;
36443;SDS011;24692;45.642;13.806;2023-07-24T06:19:58;15.65;;;10.43;;
36443;SDS011;24692;45.642;13.806;2023-07-24T06:22:23;17.33;;;10.52;;
36443;SDS011;24692;45.642;13.806;2023-07-24T06:24:49;18.10;;;11.10;;
36443;SDS011;24692;45.642;13.806;2023-07-24T06:27:15;16.42;;;10.48;;
36443;SDS011;24692;45.642;13.806;2023-07-24T06:29:41;17.48;;;11.25;;
36443;SDS011;24692;45.642;13.806;2023-07-24T06:32:07;17.20;;;10.98;;
36443;SDS011;24692;45.642;13.806;2023-07-24T06:34:33;16.08;;;10.75;;
36443;SDS011;24692;45.642;13.806;2023-07-24T06:36:59;18.10;;;11.48;;
36443;SDS011;24692;45.642;13.806;2023-07-24T06:39:25;16.85;;;10.82;;
36443;SDS011;24692;45.642;13.806;2023-07-24T06:41:51;16.85;;;10.75;;
36443;SDS011;24692;45.642;13.806;2023-07-24T06:44:17;18.50;;;10.50;;
36443;SDS011;24692;45.642;13.806;2023-07-24T06:46:43;17.42;;;9.25;;
36443;SDS011;24692;45.642;13.806;2023-07-24T06:49:09;19.30;;;10.27;;
36443;SDS011;24692;45.642;13.806;2023-07-24T06:51:36;18.38;;;11.13;;
36443;SDS011;24692;45.642;13.806;2023-07-24T06:54:03;19.95;;;10.30;;
36443;SDS011;24692;45.642;13.806;2023-07-24T06:56:29;17.15;;;10.25;;
36443;SDS011;24692;45.642;13.806;2023-07-24T06:58:55;15.02;;;9.98;;
36443;SDS011;24692;45.642;13.806;2023-07-24T07:01:20;17.92;;;10.88;;
36443;SDS011;24692;45.642;13.806;2023-07-24T07:03:46;17.15;;;10.35;;
36443;SDS011;24692;45.642;13.806;2023-07-24T07:06:12;17.05;;;10.55;;
36443;SDS011;24692;45.642;13.806;2023-07-24T07:08:38;18.45;;;10.82;;
36443;SDS011;24692;45.642;13.806;2023-07-24T07:11:03;16.67;;;10.15;;
36443;SDS011;24692;45.642;13.806;2023-07-24T07:13:29;18.23;;;9.70;;
36443;SDS011;24692;45.642;13.806;2023-07-24T07:15:55;19.70;;;10.50;;
36443;SDS011;24692;45.642;13.806;2023-07-24T07:18:20;16.40;;;10.27;;
36443;SDS011;24692;45.642;13.806;2023-07-24T07:20:46;16.48;;;9.90;;
36443;SDS011;24692;45.642;13.806;2023-07-24T07:23:16;14.52;;;9.55;;
36443;SDS011;24692;45.642;13.806;2023-07-24T07:25:42;15.52;;;10.15;;
36443;SDS011;24692;45.642;13.806;2023-07-24T07:28:10;17.33;;;8.80;;
36443;SDS011;24692;45.642;13.806;2023-07-24T07:30:36;14.70;;;8.70;;
36443;SDS011;24692;45.642;13.806;2023-07-24T07:33:02;15.60;;;9.45;;
36443;SDS011;24692;45.642;13.806;2023-07-24T07:35:27;17.30;;;9.30;;
36443;SDS011;24692;45.642;13.806;2023-07-24T07:37:54;19.23;;;9.38;;
36443;SDS011;24692;45.642;13.806;2023-07-24T07:40:20;16.75;;;8.85;;
36443;SDS011;24692;45.642;13.806;2023-07-24T07:42:45;17.75;;;9.35;;
36443;SDS011;24692;45.642;13.806;2023-07-24T07:45:11;16.02;;;9.77;;
36443;SDS011;24692;45.642;13.806;2023-07-24T07:47:37;15.55;;;8.88;;
36443;SDS011;24692;45.642;13.806;2023-07-24T07:50:02;14.10;;;8.48;;
36443;SDS011;24692;45.642;13.806;2023-07-24T07:52:28;15.40;;;8.82;;
36443;SDS011;24692;45.642;13.806;2023-07-24T07:54:54;16.90;;;8.93;;
36443;SDS011;24692;45.642;13.806;2023-07-24T07:57:19;16.45;;;8.65;;
36443;SDS011;24692;45.642;13.806;2023-07-24T07:59:45;17.17;;;9.35;;
36443;SDS011;24692;45.642;13.806;2023-07-24T08:02:11;16.95;;;9.48;;
36443;SDS011;24692;45.642;13.806;2023-07-24T08:04:36;14.60;;;8.10;;
36443;SDS011;24692;45.642;13.806;2023-07-24T08:07:02;16.73;;;8.25;;
36443;SDS011;24692;45.642;13.806;2023-07-24T08:09:28;13.10;;;8.77;;
36443;SDS011;24692;45.642;13.806;2023-07-24T08:11:54;18.50;;;8.55;;
36443;SDS011;24692;45.642;13.806;2023-07-24T08:14:20;15.93;;;8.63;;
36443;SDS011;24692;45.642;13.806;2023-07-24T08:16:49;16.48;;;7.90;;
36443;SDS011;24692;45.642;13.806;2023-07-24T08:19:15;13.05;;;7.68;;
36443;SDS011;24692;45.642;13.806;2023-07-24T08:21:40;12.60;;;8.02;;
36443;SDS011;24692;45.642;13.806;2023-07-24T08:24:06;14.13;;;7.38;;
36443;SDS011;24692;45.642;13.806;2023-07-24T08:26:32;11.82;;;6.90;;
36443;SDS011;24692;45.642;13.806;2023-07-24T08:28:58;13.27;;;6.75;;
36443;SDS011;24692;45.642;13.806;2023-07-24T08:31:23;14.88;;;6.57;;
36443;SDS011;24692;45.642;13.806;2023-07-24T08:33:49;16.50;;;7.43;;
36443;SDS011;24692;45.642;13.806;2023-07-24T08:36:15;14.75;;;7.25;;
36443;SDS011;24692;45.642;13.806;2023-07-24T08:38:40;14.57;;;6.55;;
36443;SDS011;24692;45.642;13.806;2023-07-24T08:41:11;11.63;;;6.88;;
36443;SDS011;24692;45.642;13.806;2023-07-24T08:43:38;13.10;;;7.28;;
36443;SDS011;24692;45.642;13.806;2023-07-24T08:46:06;12.55;;;6.82;;
36443;SDS011;24692;45.642;13.806;2023-07-24T08:51:02;15.77;;;7.70;;
36443;SDS011;24692;45.642;13.806;2023-07-24T08:53:29;13.30;;;7.47;;
36443;SDS011;24692;45.642;13.806;2023-07-24T08:55:56;15.95;;;7.47;;
36443;SDS011;24692;45.642;13.806;2023-07-24T08:58:22;13.23;;;8.07;;
36443;SDS011;24692;45.642;13.806;2023-07-24T09:00:48;14.30;;;7.78;;
36443;SDS011;24692;45.642;13.806;2023-07-24T09:03:16;12.57;;;7.43;;
36443;SDS011;24692;45.642;13.806;2023-07-24T09:05:43;17.40;;;8.27;;
36443;SDS011;24692;45.642;13.806;2023-07-24T09:08:09;13.23;;;7.72;;
36443;SDS011;24692;45.642;13.806;2023-07-24T09:10:34;13.45;;;8.00;;
36443;SDS011;24692;45.642;13.806;2023-07-24T09:13:00;16.55;;;8.43;;
36443;SDS011;24692;45.642;13.806;2023-07-24T09:15:28;15.35;;;8.18;;
36443;SDS011;24692;45.642;13.806;2023-07-24T09:18:03;17.52;;;8.45;;
36443;SDS011;24692;45.642;13.806;2023-07-24T09:20:37;18.05;;;9.10;;
36443;SDS011;24692;45.642;13.806;2023-07-24T09:23:04;15.90;;;9.18;;
36443;SDS011;24692;45.642;13.806;2023-07-24T09:25:30;15.55;;;8.85;;
36443;SDS011;24692;45.642;13.806;2023-07-24T09:27:59;17.65;;;8.80;;
36443;SDS011;24692;45.642;13.806;2023-07-24T09:30:25;16.23;;;8.57;;
36443;SDS011;24692;45.642;13.806;2023-07-24T09:32:52;15.63;;;9.10;;
36443;SDS011;24692;45.642;13.806;2023-07-24T09:35:19;16.38;;;8.80;;
36443;SDS011;24692;45.642;13.806;2023-07-24T09:37:45;16.00;;;8.57;;
36443;SDS011;24692;45.642;13.806;2023-07-24T09:40:11;14.77;;;8.80;;
36443;SDS011;24692;45.642;13.806;2023-07-24T09:42:39;18.40;;;9.20;;
36443;SDS011;24692;45.642;13.806;2023-07-24T09:45:06;17.25;;;8.90;;
36443;SDS011;24692;45.642;13.806;2023-07-24T09:47:33;13.02;;;8.98;;
36443;SDS011;24692;45.642;13.806;2023-07-24T09:50:00;13.90;;;8.70;;
36443;SDS011;24692;45.642;13.806;2023-07-24T09:52:29;19.50;;;9.43;;
36443;SDS011;24692;45.642;13.806;2023-07-24T09:57:32;13.80;;;8.32;;
36443;SDS011;24692;45.642;13.806;2023-07-24T09:59:58;19.45;;;8.48;;
36443;SDS011;24692;45.642;13.806;2023-07-24T10:02:26;17.00;;;9.20;;
36443;SDS011;24692;45.642;13.806;2023-07-24T10:04:52;17.48;;;9.23;;
36443;SDS011;24692;45.642;13.806;2023-07-24T10:07:19;16.90;;;9.18;;
36443;SDS011;24692;45.642;13.806;2023-07-24T10:09:47;16.25;;;8.88;;
36443;SDS011;24692;45.642;13.806;2023-07-24T10:12:14;14.48;;;8.73;;
36443;SDS011;24692;45.642;13.806;2023-07-24T10:14:44;16.67;;;8.38;;
36443;SDS011;24692;45.642;13.806;2023-07-24T10:17:11;19.33;;;9.63;;
36443;SDS011;24692;45.642;13.806;2023-07-24T10:19:40;16.08;;;8.60;;
36443;SDS011;24692;45.642;13.806;2023-07-24T10:22:18;15.48;;;8.70;;
36443;SDS011;24692;45.642;13.806;2023-07-24T10:24:45;20.80;;;9.07;;
36443;SDS011;24692;45.642;13.806;2023-07-24T10:27:12;17.63;;;9.10;;
36443;SDS011;24692;45.642;13.806;2023-07-24T10:29:38;17.77;;;9.05;;
36443;SDS011;24692;45.642;13.806;2023-07-24T10:32:04;17.70;;;9.35;;
36443;SDS011;24692;45.642;13.806;2023-07-24T10:34:43;17.55;;;8.95;;
36443;SDS011;24692;45.642;13.806;2023-07-24T10:37:08;19.85;;;9.55;;
36443;SDS011;24692;45.642;13.806;2023-07-24T10:39:38;15.45;;;9.25;;
36443;SDS011;24692;45.642;13.806;2023-07-24T10:42:08;19.13;;;8.85;;
36443;SDS011;24692;45.642;13.806;2023-07-24T10:44:35;17.42;;;9.07;;
36443;SDS011;24692;45.642;13.806;2023-07-24T10:47:01;16.75;;;8.93;;
36443;SDS011;24692;45.642;13.806;2023-07-24T10:49:27;15.50;;;9.23;;
36443;SDS011;24692;45.642;13.806;2023-07-24T10:51:56;15.73;;;8.77;;
36443;SDS011;24692;45.642;13.806;2023-07-24T10:54:23;18.10;;;8.52;;
36443;SDS011;24692;45.642;13.806;2023-07-24T10:56:48;24.08;;;9.27;;
36443;SDS011;24692;45.642;13.806;2023-07-24T10:59:14;16.02;;;8.38;;
36443;SDS011;24692;45.642;13.806;2023-07-24T11:01:40;18.55;;;9.10;;
36443;SDS011;24692;45.642;13.806;2023-07-24T11:04:06;15.77;;;9.07;;
36443;SDS011;24692;45.642;13.806;2023-07-24T11:06:32;18.88;;;9.07;;
36443;SDS011;24692;45.642;13.806;2023-07-24T11:08:58;19.90;;;9.57;;
36443;SDS011;24692;45.642;13.806;2023-07-24T11:11:31;16.75;;;8.70;;
36443;SDS011;24692;45.642;13.806;2023-07-24T11:13:59;18.17;;;8.95;;
36443;SDS011;24692;45.642;13.806;2023-07-24T11:16:26;16.05;;;9.20;;
36443;SDS011;24692;45.642;13.806;2023-07-24T11:18:55;15.73;;;9.38;;
36443;SDS011;24692;45.642;13.806;2023-07-24T11:21:22;20.73;;;9.43;;
36443;SDS011;24692;45.642;13.806;2023-07-24T11:23:55;15.88;;;7.95;;
36443;SDS011;24692;45.642;13.806;2023-07-24T11:26:21;16.05;;;8.95;;
36443;SDS011;24692;45.642;13.806;2023-07-24T11:28:48;20.55;;;8.43;;
36443;SDS011;24692;45.642;13.806;2023-07-24T11:31:15;18.35;;;8.43;;
36443;SDS011;24692;45.642;13.806;2023-07-24T11:33:44;15.10;;;7.90;;
36443;SDS011;24692;45.642;13.806;2023-07-24T11:36:10;20.92;;;8.13;;
36443;SDS011;24692;45.642;13.806;2023-07-24T11:38:36;13.90;;;7.25;;
36443;SDS011;24692;45.642;13.806;2023-07-24T11:41:03;16.58;;;8.13;;
36443;SDS011;24692;45.642;13.806;2023-07-24T11:43:29;14.38;;;7.82;;
36443;SDS011;24692;45.642;13.806;2023-07-24T11:45:55;18.73;;;7.97;;
36443;SDS011;24692;45.642;13.806;2023-07-24T11:48:21;19.30;;;8.88;;
36443;SDS011;24692;45.642;13.806;2023-07-24T11:50:49;21.48;;;8.80;;
36443;SDS011;24692;45.642;13.806;2023-07-24T11:55:57;15.23;;;8.50;;
36443;SDS011;24692;45.642;13.806;2023-07-24T11:58:30;17.42;;;9.02;;
36443;SDS011;24692;45.642;13.806;2023-07-24T12:00:56;15.05;;;8.73;;
36443;SDS011;24692;45.642;13.806;2023-07-24T12:03:23;20.67;;;9.38;;
36443;SDS011;24692;45.642;13.806;2023-07-24T12:05:51;14.55;;;8.32;;
36443;SDS011;24692;45.642;13.806;2023-07-24T12:08:18;16.95;;;9.10;;
36443;SDS011;24692;45.642;13.806;2023-07-24T12:11:04;16.27;;;9.80;;
36443;SDS011;24692;45.642;13.806;2023-07-24T12:13:40;17.70;;;9.68;;
36443;SDS011;24692;45.642;13.806;2023-07-24T12:16:06;14.35;;;8.55;;
36443;SDS011;24692;45.642;13.806;2023-07-24T12:18:31;15.48;;;9.43;;
36443;SDS011;24692;45.642;13.806;2023-07-24T12:20:57;16.20;;;9.40;;
36443;SDS011;24692;45.642;13.806;2023-07-24T12:23:23;17.95;;;9.32;;
36443;SDS011;24692;45.642;13.806;2023-07-24T12:25:48;17.17;;;9.23;;
36443;SDS011;24692;45.642;13.806;2023-07-24T12:28:14;12.63;;;8.38;;
36443;SDS011;24692;45.642;13.806;2023-07-24T12:30:40;17.13;;;9.25;;
36443;SDS011;24692;45.642;13.806;2023-07-24T12:33:05;16.23;;;9.27;;
36443;SDS011;24692;45.642;13.806;2023-07-24T12:35:31;17.73;;;8.68;;
36443;SDS011;24692;45.642;13.806;2023-07-24T12:37:57;16.17;;;8.68;;
36443;SDS011;24692;45.642;13.806;2023-07-24T12:40:22;17.60;;;9.60;;
36443;SDS011;24692;45.642;13.806;2023-07-24T12:42:48;13.95;;;8.65;;
36443;SDS011;24692;45.642;13.806;2023-07-24T12:45:13;17.20;;;9.43;;
36443;SDS011;24692;45.642;13.806;2023-07-24T12:47:39;17.60;;;8.55;;
36443;SDS011;24692;45.642;13.806;2023-07-24T12:50:05;17.50;;;9.60;;
36443;SDS011;24692;45.642;13.806;2023-07-24T12:52:31;16.25;;;8.43;;
36443;SDS011;24692;45.642;13.806;2023-07-24T12:54:56;17.95;;;8.63;;
36443;SDS011;24692;45.642;13.806;2023-07-24T12:57:22;18.17;;;9.00;;
36443;SDS011;24692;45.642;13.806;2023-07-24T12:59:48;17.73;;;8.63;;
36443;SDS011;24692;45.642;13.806;2023-07-24T13:02:13;21.77;;;9.60;;
36443;SDS011;24692;45.642;13.806;2023-07-24T13:04:39;16.48;;;8.90;;
36443;SDS011;24692;45.642;13.806;2023-07-24T13:07:05;16.38;;;9.40;;
36443;SDS011;24692;45.642;13.806;2023-07-24T13:09:31;16.38;;;9.15;;
36443;SDS011;24692;45.642;13.806;2023-07-24T13:11:56;15.88;;;8.75;;
36443;SDS011;24692;45.642;13.806;2023-07-24T13:14:22;16.10;;;9.00;;
36443;SDS011;24692;45.642;13.806;2023-07-24T13:16:48;15.43;;;9.68;;
36443;SDS011;24692;45.642;13.806;2023-07-24T13:19:15;16.05;;;9.02;;
36443;SDS011;24692;45.642;13.806;2023-07-24T13:21:40;13.00;;;9.40;;
36443;SDS011;24692;45.642;13.806;2023-07-24T13:24:08;17.85;;;9.20;;
36443;SDS011;24692;45.642;13.806;2023-07-24T13:26:34;20.02;;;9.30;;
36443;SDS011;24692;45.642;13.806;2023-07-24T13:28:59;16.23;;;8.68;;
36443;SDS011;24692;45.642;13.806;2023-07-24T13:31:25;16.75;;;9.10;;
36443;SDS011;24692;45.642;13.806;2023-07-24T13:33:53;13.95;;;8.60;;
36443;SDS011;24692;45.642;13.806;2023-07-24T13:36:18;18.38;;;9.65;;
36443;SDS011;24692;45.642;13.806;2023-07-24T13:38:44;19.48;;;8.95;;
36443;SDS011;24692;45.642;13.806;2023-07-24T13:41:10;15.35;;;9.10;;
36443;SDS011;24692;45.642;13.806;2023-07-24T13:43:35;18.33;;;9.40;;
36443;SDS011;24692;45.642;13.806;2023-07-24T13:46:01;19.67;;;9.52;;
36443;SDS011;24692;45.642;13.806;2023-07-24T13:48:32;17.17;;;8.48;;
36443;SDS011;24692;45.642;13.806;2023-07-24T13:50:58;13.52;;;8.40;;
36443;SDS011;24692;45.642;13.806;2023-07-24T13:53:23;17.02;;;9.20;;
36443;SDS011;24692;45.642;13.806;2023-07-24T13:55:49;17.83;;;9.13;;
36443;SDS011;24692;45.642;13.806;2023-07-24T13:58:16;16.55;;;8.82;;
36443;SDS011;24692;45.642;13.806;2023-07-24T14:00:41;21.25;;;8.70;;
36443;SDS011;24692;45.642;13.806;2023-07-24T14:03:07;17.33;;;8.27;;
36443;SDS011;24692;45.642;13.806;2023-07-24T14:05:33;15.60;;;9.02;;
36443;SDS011;24692;45.642;13.806;2023-07-24T14:08:01;21.95;;;8.93;;
36443;SDS011;24692;45.642;13.806;2023-07-24T14:10:27;14.95;;;8.77;;
36443;SDS011;24692;45.642;13.806;2023-07-24T14:12:53;18.30;;;9.05;;
36443;SDS011;24692;45.642;13.806;2023-07-24T14:15:19;17.35;;;8.70;;
36443;SDS011;24692;45.642;13.806;2023-07-24T14:17:44;15.73;;;8.68;;
36443;SDS011;24692;45.642;13.806;2023-07-24T14:20:10;19.15;;;9.18;;
36443;SDS011;24692;45.642;13.806;2023-07-24T14:22:36;17.27;;;8.70;;
36443;SDS011;24692;45.642;13.806;2023-07-24T14:25:02;15.27;;;8.80;;
36443;SDS011;24692;45.642;13.806;2023-07-24T14:27:28;15.35;;;8.48;;